Time;durP1;ratioP1;P1;durP2;ratioP2;P2;SDS_P1;SDS_P2;PMS_P1;PMS_P2;Temp;Humidity;BMP_temperature;BMP_pressure;BME280_temperature;BME280_humidity;BME280_pressure;Samples;Min_cycle;Max_cycle;Signal;HPM_P1;HPM_P2
2022/12/05 00:04:11;;;;;;;36.15;14.68;;;;;;;2.98;100.00;98738.63;10243728;28;20062;-57
2022/12/05 00:09:12;;;;;;;34.20;15.10;;;;;;;3.06;100.00;98736.41;10244567;28;20057;-57
2022/12/05 00:14:12;;;;;;;38.17;14.77;;;;;;;3.12;100.00;98746.03;10244586;28;20499;-57
2022/12/05 00:19:13;;;;;;;36.40;17.38;;;;;;;3.13;100.00;98750.38;10243860;28;20544;-57
2022/12/05 00:24:15;;;;;;;42.05;16.20;;;;;;;3.18;100.00;98751.47;10245015;28;20103;-57
2022/12/05 00:29:14;;;;;;;46.58;21.50;;;;;;;3.12;100.00;98746.03;10244187;28;20118;-57
2022/12/05 00:34:12;;;;;;;37.10;16.30;;;;;;;2.89;100.00;98752.75;10244303;28;20034;-57
2022/12/05 00:39:15;;;;;;;42.35;17.05;;;;;;;2.91;100.00;98758.78;10244214;28;20500;-57
2022/12/05 00:44:14;;;;;;;42.20;15.98;;;;;;;2.99;100.00;98748.06;10244058;28;20073;-57
2022/12/05 00:49:13;;;;;;;46.10;17.77;;;;;;;3.08;100.00;98747.63;10242598;28;20551;-57
2022/12/05 00:54:14;;;;;;;53.25;17.80;;;;;;;3.20;100.00;98757.53;10243666;28;20038;-57
2022/12/05 00:59:18;;;;;;;54.85;19.35;;;;;;;3.22;100.00;98749.09;10243079;28;20069;-57
2022/12/05 01:04:22;;;;;;;46.88;19.65;;;;;;;3.35;100.00;98755.63;10242793;28;20585;-57
2022/12/05 01:09:21;;;;;;;50.60;18.38;;;;;;;3.27;100.00;98720.22;10243281;28;20121;-57
2022/12/05 01:14:23;;;;;;;45.60;17.98;;;;;;;3.46;100.00;98752.66;10243101;28;20030;-57
2022/12/05 01:19:26;;;;;;;43.58;18.33;;;;;;;3.51;100.00;98740.91;10249738;28;20137;-57
2022/12/05 01:24:26;;;;;;;45.60;18.55;;;;;;;3.46;100.00;98734.72;10251325;28;20057;-57
2022/12/05 01:29:25;;;;;;;40.85;17.08;;;;;;;3.52;100.00;98737.50;10250898;28;20149;-57
2022/12/05 01:34:24;;;;;;;46.70;20.08;;;;;;;3.46;100.00;98722.75;10249956;28;20050;-57
2022/12/05 01:39:23;;;;;;;40.67;17.08;;;;;;;3.48;100.00;98717.69;10250221;28;20042;-57
2022/12/05 01:44:22;;;;;;;46.80;17.60;;;;;;;3.51;100.00;98707.53;10250912;28;20026;-57
2022/12/05 01:49:31;;;;;;;35.90;17.63;;;;;;;3.54;100.00;98716.25;10249956;28;20096;-57
2022/12/05 01:54:30;;;;;;;39.45;16.80;;;;;;;3.58;100.00;98717.25;10250336;28;20314;-57
2022/12/05 01:59:35;;;;;;;35.20;19.45;;;;;;;3.50;100.00;98719.50;10250319;28;20125;-57
2022/12/05 02:04:40;;;;;;;37.97;18.08;;;;;;;3.54;100.00;98716.25;10249909;28;20089;-57
2022/12/05 02:09:38;;;;;;;33.60;15.30;;;;;;;3.58;99.93;98714.69;10249719;28;20061;-57
2022/12/05 02:14:49;;;;;;;28.15;14.27;;;;;;;3.59;100.00;98709.63;10248890;28;20046;-57
2022/12/05 02:20:26;;;;;;;32.67;14.43;;;;;;;3.64;99.67;98704.69;10248918;28;20173;-57
2022/12/05 02:25:40;;;;;;;26.95;13.38;;;;;;;3.67;99.85;98701.38;10248861;28;20130;-57
2022/12/05 02:30:46;;;;;;;30.13;15.35;;;;;;;3.61;99.52;98714.81;10247357;28;20066;-57
2022/12/05 02:35:48;;;;;;;32.17;17.02;;;;;;;3.60;99.25;98716.50;10248533;28;20070;-58
2022/12/05 02:40:59;;;;;;;36.88;19.67;;;;;;;3.58;99.78;98710.44;10248364;28;20153;-57
2022/12/05 02:46:03;;;;;;;30.92;14.68;;;;;;;3.58;99.43;98707.84;10248063;28;20138;-57
2022/12/05 02:51:05;;;;;;;47.95;29.95;;;;;;;3.53;98.99;98698.22;10248464;28;20582;-57
2022/12/05 02:56:06;;;;;;;35.28;17.20;;;;;;;3.41;99.43;98704.59;10246210;28;20125;-57
2022/12/05 03:01:06;;;;;;;35.78;18.17;;;;;;;3.43;99.60;98692.72;10248353;28;20162;-58
2022/12/05 03:06:24;;;;;;;83.88;46.28;;;;;;;3.42;99.49;98690.97;10247421;28;20547;-56
2022/12/05 03:11:23;;;;;;;40.00;19.10;;;;;;;3.36;99.64;98680.44;10247096;28;20149;-56
2022/12/05 03:16:24;;;;;;;38.22;16.88;;;;;;;3.34;99.72;98694.88;10246924;28;20038;-56
2022/12/05 03:21:29;;;;;;;50.70;27.65;;;;;;;3.35;100.00;98688.91;10247229;28;20126;-56
2022/12/05 03:26:44;;;;;;;53.47;25.80;;;;;;;3.41;100.00;98704.59;10246184;28;20108;-57
2022/12/05 03:32:04;;;;;;;47.40;20.15;;;;;;;3.41;99.84;98694.31;10246258;28;20120;-56
2022/12/05 03:37:11;;;;;;;51.28;22.40;;;;;;;3.44;99.94;98691.00;10246369;28;20109;-56
2022/12/05 03:42:13;;;;;;;49.97;18.73;;;;;;;3.52;99.79;98696.44;10243584;28;20105;-56
2022/12/05 03:47:23;;;;;;;49.38;19.42;;;;;;;3.29;99.49;98696.38;10245677;28;20077;-56
2022/12/05 03:52:34;;;;;;;49.30;19.48;;;;;;;3.26;100.00;98703.06;10246368;28;20382;-56
2022/12/05 03:57:42;;;;;;;48.50;20.45;;;;;;;3.35;99.65;98706.00;10246311;28;20066;-56
2022/12/05 04:02:50;;;;;;;51.60;20.17;;;;;;;3.43;99.96;98702.97;10245113;28;20535;-57
2022/12/05 04:07:55;;;;;;;65.15;20.88;;;;;;;3.52;99.96;98707.63;10244629;28;20065;-57
2022/12/05 04:12:58;;;;;;;65.07;21.70;;;;;;;3.41;100.00;98707.16;10245414;28;20116;-58
2022/12/05 04:17:59;;;;;;;64.35;21.60;;;;;;;3.46;100.00;98706.47;10244592;28;20065;-57
2022/12/05 04:22:59;;;;;;;75.65;20.00;;;;;;;3.47;100.00;98697.97;10243376;28;20137;-57
2022/12/05 04:28:18;;;;;;;58.83;19.65;;;;;;;3.49;100.00;98707.47;10244318;28;20066;-57
2022/12/05 04:33:35;;;;;;;58.40;19.92;;;;;;;3.46;100.00;98697.09;10244380;28;20068;-58
2022/12/05 04:38:52;;;;;;;68.28;22.60;;;;;;;3.48;100.00;98707.44;10243847;28;20126;-56
2022/12/05 04:43:55;;;;;;;60.80;21.73;;;;;;;3.43;100.00;98710.66;10244229;28;20061;-56
2022/12/05 04:48:59;;;;;;;61.63;22.08;;;;;;;3.44;100.00;98709.84;10244393;28;20137;-56
2022/12/05 04:54:30;;;;;;;69.47;23.73;;;;;;;3.47;100.00;98718.47;10243331;28;20072;-56
2022/12/05 04:59:29;;;;;;;67.93;23.77;;;;;;;3.51;100.00;98720.38;10242937;28;20153;-56
2022/12/05 05:04:37;;;;;;;102.22;28.63;;;;;;;3.51;100.00;98715.25;10242027;28;20085;-56
2022/12/05 05:09:37;;;;;;;84.13;25.95;;;;;;;3.46;100.00;98720.19;10243693;28;20062;-56
2022/12/05 05:14:36;;;;;;;64.20;23.33;;;;;;;3.40;100.00;98713.13;10242750;28;20803;-56
2022/12/05 05:19:35;;;;;;;76.57;23.17;;;;;;;3.30;100.00;98728.91;10190697;28;20517;-56
2022/12/05 05:24:34;;;;;;;66.80;24.20;;;;;;;3.24;100.00;98728.66;10249026;28;20054;-56
2022/12/05 05:29:33;;;;;;;71.35;21.02;;;;;;;3.23;100.00;98730.31;10242061;28;20122;-56
2022/12/05 05:34:32;;;;;;;62.40;20.85;;;;;;;3.30;100.00;98744.28;10243710;28;20049;-56
2022/12/05 05:39:31;;;;;;;81.32;23.08;;;;;;;3.37;100.00;98737.75;10242999;28;20516;-56
2022/12/05 05:44:30;;;;;;;69.22;21.48;;;;;;;3.38;100.00;98755.78;10241705;28;20062;-56
2022/12/05 05:49:29;;;;;;;85.20;24.70;;;;;;;3.35;100.00;98750.50;10253909;28;20038;-56
2022/12/05 05:54:28;;;;;;;66.22;20.88;;;;;;;3.32;100.00;98745.25;10241849;28;20628;-56
2022/12/05 05:59:26;;;;;;;74.75;24.55;;;;;;;3.35;100.00;98758.19;10241800;28;20113;-56
2022/12/05 06:04:25;;;;;;;147.05;53.85;;;;;;;3.34;100.00;98769.28;10246729;28;20046;-56
2022/12/05 06:09:24;;;;;;;47.67;19.23;;;;;;;3.40;100.00;98766.09;10249165;28;20042;-56
2022/12/05 06:14:23;;;;;;;35.40;17.45;;;;;;;3.26;100.00;98765.50;10247056;28;20046;-56
2022/12/05 06:19:22;;;;;;;27.35;14.85;;;;;;;3.22;100.00;98763.63;10249521;28;20042;-56
2022/12/05 06:24:21;;;;;;;27.23;16.48;;;;;;;3.12;100.00;98767.47;10248302;28;20518;-56
2022/12/05 06:29:20;;;;;;;31.60;18.15;;;;;;;2.96;100.00;98786.41;10242831;28;20042;-56
2022/12/05 06:34:19;;;;;;;36.13;19.33;;;;;;;2.95;100.00;98787.19;10243829;28;20112;-56
2022/12/05 06:39:18;;;;;;;34.30;18.05;;;;;;;2.85;100.00;98779.91;10243931;28;20054;-56
2022/12/05 06:44:17;;;;;;;32.20;14.68;;;;;;;2.79;100.00;98782.19;10244173;28;20030;-56
2022/12/05 06:49:16;;;;;;;43.15;18.25;;;;;;;2.79;100.00;98787.28;10247286;28;20113;-56
2022/12/05 06:54:15;;;;;;;47.75;20.77;;;;;;;2.88;100.00;98797.97;10247755;28;20018;-56
2022/12/05 06:59:14;;;;;;;48.47;19.67;;;;;;;3.01;100.00;98795.19;10246734;28;20042;-56
2022/12/05 07:04:25;;;;;;;69.70;29.70;;;;;;;3.12;100.00;98787.09;10247830;28;20085;-58
2022/12/05 07:09:44;;;;;;;44.70;15.65;;;;;;;3.14;100.00;98778.66;10245008;28;20113;-55
2022/12/05 07:14:44;;;;;;;56.33;20.17;;;;;;;3.21;100.00;98782.38;10245121;28;20125;-55
2022/12/05 07:19:43;;;;;;;57.33;21.52;;;;;;;3.23;100.00;98788.44;10246658;28;20066;-55
2022/12/05 07:24:43;;;;;;;60.42;20.70;;;;;;;3.25;100.00;98794.53;10246734;28;20073;-55
2022/12/05 07:29:42;;;;;;;60.03;20.30;;;;;;;3.37;100.00;98781.34;10245414;28;20532;-55
2022/12/05 07:34:41;;;;;;;52.00;18.23;;;;;;;3.49;100.00;98787.03;10244813;28;20504;-55
2022/12/05 07:39:40;;;;;;;38.88;16.25;;;;;;;3.57;100.00;98793.38;10245655;28;20076;-55
2022/12/05 07:44:39;;;;;;;58.95;24.38;;;;;;;3.65;100.00;98792.00;10246274;28;20030;-55
2022/12/05 07:49:38;;;;;;;44.47;16.58;;;;;;;3.79;100.00;98791.72;10245228;28;20038;-55
2022/12/05 07:54:37;;;;;;;70.18;36.03;;;;;;;3.99;100.00;98797.72;10244368;28;20519;-55
2022/12/05 07:59:36;;;;;;;46.15;22.02;;;;;;;4.12;100.00;98792.25;10245803;28;20066;-57
2022/12/05 08:04:35;;;;;;;46.00;20.73;;;;;;;4.15;100.00;98800.09;10244099;28;20046;-56
2022/12/05 08:09:34;;;;;;;42.55;18.05;;;;;;;4.22;99.32;98781.56;10243186;28;20023;-55
2022/12/05 08:14:33;;;;;;;52.58;26.45;;;;;;;4.37;99.18;98780.41;10245005;28;20419;-55
2022/12/05 08:19:32;;;;;;;45.50;22.50;;;;;;;4.39;99.35;98789.94;10244093;28;20121;-56
2022/12/05 08:24:31;;;;;;;31.33;14.75;;;;;;;4.32;98.34;98782.78;10244648;28;20038;-56
2022/12/05 08:29:30;;;;;;;33.33;14.55;;;;;;;4.21;98.41;98784.03;10243042;28;20485;-56
2022/12/05 08:34:29;;;;;;;40.08;18.02;;;;;;;4.12;98.36;98794.81;10243742;28;20034;-56
2022/12/05 08:39:28;;;;;;;56.42;27.77;;;;;;;4.04;98.61;98796.19;10243077;28;20374;-56
2022/12/05 08:44:27;;;;;;;59.42;29.20;;;;;;;3.99;98.75;98795.16;10243343;28;20077;-56
2022/12/05 08:49:27;;;;;;;45.15;24.00;;;;;;;3.99;98.59;98788.31;10243046;28;20038;-56
2022/12/05 08:54:26;;;;;;;49.00;22.63;;;;;;;4.13;98.96;98785.41;10258578;28;20081;-56
2022/12/05 08:59:25;;;;;;;51.28;23.17;;;;;;;4.20;98.10;98777.16;10243212;28;20065;-56
2022/12/05 09:04:24;;;;;;;47.85;22.92;;;;;;;4.16;97.76;98776.16;10242704;28;20057;-56
2022/12/05 09:09:23;;;;;;;50.15;21.95;;;;;;;4.24;97.56;98767.06;10243369;28;20045;-56
2022/12/05 09:14:23;;;;;;;44.50;22.40;;;;;;;4.60;97.40;98753.03;10243418;28;20050;-56
2022/12/05 09:19:24;;;;;;;59.50;29.77;;;;;;;4.90;96.73;98758.47;10241936;28;20125;-56
2022/12/05 09:24:24;;;;;;;45.28;22.25;;;;;;;5.07;95.72;98752.28;10243352;28;20129;-56
2022/12/05 09:29:24;;;;;;;82.07;47.67;;;;;;;5.16;96.35;98762.03;10242297;28;20605;-56
2022/12/05 09:34:24;;;;;;;65.30;35.30;;;;;;;5.21;94.61;98749.34;10243213;28;20363;-56
2022/12/05 09:39:23;;;;;;;42.28;19.77;;;;;;;5.29;94.79;98747.91;10246562;28;20129;-56
2022/12/05 09:45:01;;;;;;;55.80;32.90;;;;;;;5.10;94.16;98734.38;10250377;28;20070;-56
2022/12/05 09:50:12;;;;;;;51.03;32.47;;;;;;;5.10;95.36;98742.09;10248550;28;20109;-56
2022/12/05 09:55:18;;;;;;;46.13;20.88;;;;;;;5.13;93.82;98741.31;10246020;28;20113;-56
2022/12/05 10:00:17;;;;;;;96.90;53.58;;;;;;;4.91;94.13;98729.34;10246139;28;20145;-56
2022/12/05 10:05:34;;;;;;;;;;;;;;;4.85;94.87;98726.53;10246206;28;20736;-56
2022/12/05 10:11:06;;;;;;;433.67;206.52;;;;;;;5.11;94.34;98723.28;10247781;28;20009;-56
2022/12/05 10:16:11;;;;;;;565.53;239.13;;;;;;;5.02;93.63;98733.25;10247133;28;20149;-56
2022/12/05 10:21:33;;;;;;;373.80;133.18;;;;;;;5.22;94.17;98717.63;10247741;28;20145;-56
2022/12/05 10:26:37;;;;;;;46.42;23.02;;;;;;;5.34;93.05;98720.63;10248207;28;20121;-56
2022/12/05 10:31:37;;;;;;;90.20;48.42;;;;;;;5.37;93.81;98718.19;10248084;28;20114;-56
2022/12/05 10:36:36;;;;;;;72.75;44.33;;;;;;;5.32;92.20;98720.59;10245646;28;20114;-56
2022/12/05 10:41:35;;;;;;;63.10;38.33;;;;;;;5.34;92.61;98715.50;10247197;28;20125;-56
2022/12/05 10:46:34;;;;;;;49.13;29.00;;;;;;;5.42;92.23;98714.06;10244914;28;20076;-56
2022/12/05 10:51:33;;;;;;;48.25;27.98;;;;;;;5.21;91.51;98714.19;10245436;28;20644;-56
2022/12/05 10:56:50;;;;;;;35.50;20.85;;;;;;;5.25;92.72;98704.88;10247064;28;20516;-56
2022/12/05 11:01:57;;;;;;;50.72;28.23;;;;;;;5.38;92.07;98701.91;10243919;28;20121;-56
2022/12/05 11:07:00;;;;;;;38.75;21.35;;;;;;;5.41;92.01;98690.84;10246898;28;20129;-56
2022/12/05 11:12:08;;;;;;;69.40;41.10;;;;;;;5.44;91.82;98697.00;10245285;28;20132;-56
2022/12/05 11:17:24;;;;;;;35.70;18.27;;;;;;;5.16;91.86;98690.00;10245933;28;20169;-56
2022/12/05 11:22:31;;;;;;;35.90;18.83;;;;;;;5.00;91.94;98686.00;10246400;28;20153;-56
2022/12/05 11:27:31;;;;;;;43.97;23.40;;;;;;;5.01;92.47;98679.16;10243497;28;20169;-56
2022/12/05 11:32:32;;;;;;;30.65;16.00;;;;;;;5.15;92.96;98666.78;10245595;28;20478;-56
2022/12/05 11:37:42;;;;;;;41.30;25.13;;;;;;;5.22;93.58;98663.59;10245478;28;20663;-56
2022/12/05 11:43:23;;;;;;;35.42;19.45;;;;;;;5.52;92.08;98638.03;10245525;28;20759;-56
2022/12/05 11:48:51;;;;;;;39.13;22.02;;;;;;;5.52;90.75;98646.63;10250086;28;20125;-56
2022/12/05 11:53:56;;;;;;;124.57;71.55;;;;;;;5.53;91.57;98647.50;10247323;28;20731;-56
2022/12/05 11:59:12;;;;;;;40.80;20.92;;;;;;;5.55;91.18;98651.00;10245937;28;20076;-56
2022/12/05 12:04:20;;;;;;;53.58;29.90;;;;;;;5.38;90.67;98635.00;10245198;28;20082;-56
2022/12/05 12:09:40;;;;;;;57.00;31.65;;;;;;;5.42;91.13;98621.41;10245800;28;20456;-56
2022/12/05 12:14:49;;;;;;;37.10;21.00;;;;;;;5.22;90.68;98617.28;10245046;28;20073;-56
2022/12/05 12:20:12;;;;;;;49.95;27.90;;;;;;;5.06;90.86;98611.63;10246374;28;20459;-56
2022/12/05 12:25:22;;;;;;;81.40;48.08;;;;;;;5.18;91.17;98616.31;10246590;28;20753;-56
2022/12/05 12:30:31;;;;;;;65.07;37.72;;;;;;;5.42;90.93;98610.25;10246368;28;20784;-56
2022/12/05 12:35:52;;;;;;;48.70;25.35;;;;;;;5.47;90.77;98594.13;10246218;28;20141;-56
2022/12/05 12:41:02;;;;;;;47.10;24.23;;;;;;;5.15;91.06;98599.88;10249643;28;20124;-57
2022/12/05 12:46:29;;;;;;;189.13;80.25;;;;;;;5.02;91.78;98593.47;10241305;28;20133;-57
2022/12/05 12:51:30;;;;;;;136.35;67.57;;;;;;;5.25;91.27;98601.94;10243424;28;20117;-57
2022/12/05 12:56:57;;;;;;;46.95;23.33;;;;;;;5.19;91.79;98601.75;10240962;28;20126;-57
2022/12/05 13:02:10;;;;;;;64.43;34.70;;;;;;;5.11;91.82;98598.88;10241954;28;20749;-57
2022/12/05 13:07:15;;;;;;;51.40;25.45;;;;;;;5.22;92.02;98605.28;10242601;28;20072;-57
2022/12/05 13:12:20;;;;;;;42.13;23.15;;;;;;;5.05;91.88;98601.28;10245374;28;20451;-57
2022/12/05 13:17:22;;;;;;;39.90;20.40;;;;;;;4.71;93.18;98593.22;10244312;28;20145;-57
2022/12/05 13:22:23;;;;;;;48.58;24.75;;;;;;;4.62;93.77;98585.19;10250322;28;20576;-57
2022/12/05 13:27:27;;;;;;;42.03;24.35;;;;;;;4.58;94.53;98575.59;10247165;28;20153;-57
2022/12/05 13:32:39;;;;;;;38.20;19.63;;;;;;;4.56;94.79;98577.25;10247789;28;20109;-57
2022/12/05 13:43:04;;;;;;;38.40;21.20;;;;;;;4.62;95.06;98585.19;10246958;28;20149;-56
2022/12/05 13:48:18;;;;;;;71.22;37.00;;;;;;;4.54;95.33;98572.88;10248066;28;20129;-56
2022/12/05 13:53:30;;;;;;;45.70;21.17;;;;;;;4.64;95.07;98568.13;10245881;28;20674;-56
2022/12/05 13:58:31;;;;;;;42.58;19.73;;;;;;;4.63;95.21;98571.50;10248864;28;20169;-56
2022/12/05 14:03:33;;;;;;;35.92;18.13;;;;;;;4.67;95.17;98578.50;10248496;28;20141;-56
2022/12/05 14:08:38;;;;;;;36.58;18.80;;;;;;;4.71;94.77;98588.09;10248209;28;20122;-56
2022/12/05 14:13:40;;;;;;;42.38;22.55;;;;;;;4.77;95.14;98584.84;10247729;28;20117;-56
2022/12/05 14:18:47;;;;;;;68.03;37.92;;;;;;;4.87;94.45;98575.75;10247010;28;20170;-56
2022/12/05 14:23:51;;;;;;;41.42;25.90;;;;;;;4.98;94.20;98579.59;10243934;28;20133;-56
2022/12/05 14:29:12;;;;;;;32.30;17.63;;;;;;;5.02;94.47;98578.91;10247584;28;20076;-56
2022/12/05 14:34:23;;;;;;;44.05;23.10;;;;;;;5.01;94.33;98574.56;10247205;28;20137;-56
2022/12/05 14:39:32;;;;;;;45.38;24.92;;;;;;;4.94;94.35;98582.88;10245703;28;20120;-57
2022/12/05 14:44:32;;;;;;;45.90;25.58;;;;;;;4.89;94.93;98592.97;10246024;28;20624;-56
2022/12/05 14:49:50;;;;;;;41.28;24.40;;;;;;;4.79;95.37;98595.19;10247794;28;20230;-56
2022/12/05 14:54:59;;;;;;;51.10;28.67;;;;;;;4.74;95.75;98589.03;10246923;28;20137;-56
2022/12/05 15:00:04;;;;;;;42.55;24.58;;;;;;;4.68;95.86;98572.53;10246017;28;20121;-56
2022/12/05 15:05:29;;;;;;;42.97;24.20;;;;;;;4.78;95.41;98584.00;10244816;28;20129;-56
2022/12/05 15:10:32;;;;;;;43.50;27.73;;;;;;;4.82;95.87;98580.72;10249336;28;20070;-56
2022/12/05 15:16:00;;;;;;;47.30;27.60;;;;;;;4.78;95.43;98580.56;10249740;28;20073;-56
2022/12/05 15:21:05;;;;;;;51.72;28.90;;;;;;;4.71;95.88;98572.66;10248995;28;20129;-56
2022/12/05 15:26:37;;;;;;;64.68;40.17;;;;;;;4.66;96.17;98563.00;10247702;28;20453;-56
2022/12/05 15:31:48;;;;;;;49.90;29.67;;;;;;;4.66;96.81;98566.47;10245574;28;20073;-57
2022/12/05 15:37:03;;;;;;;55.88;30.90;;;;;;;4.70;96.59;98562.31;10243135;28;20113;-58
2022/12/05 15:42:01;;;;;;;45.35;27.67;;;;;;;4.72;96.42;98548.69;10242801;28;20124;-56
2022/12/05 15:47:00;;;;;;;71.38;41.50;;;;;;;4.63;96.15;98548.38;10240140;28;20061;-57
2022/12/05 15:52:14;;;;;;;52.95;28.92;;;;;;;4.47;96.58;98551.22;10243868;28;20049;-56
2022/12/05 15:57:23;;;;;;;46.72;26.25;;;;;;;4.26;97.81;98543.59;10245660;28;20185;-56
2022/12/05 16:02:41;;;;;;;47.47;27.23;;;;;;;4.28;97.86;98557.38;10243835;28;20208;-57
2022/12/05 16:07:48;;;;;;;35.63;21.40;;;;;;;4.14;98.22;98554.31;10244120;28;20073;-56
2022/12/05 16:12:49;;;;;;;41.92;23.83;;;;;;;4.19;97.93;98542.50;10244821;28;20065;-56
2022/12/05 16:17:54;;;;;;;44.78;26.40;;;;;;;4.32;97.54;98540.41;10242083;28;20493;-56
2022/12/05 16:22:56;;;;;;;38.30;20.27;;;;;;;4.20;98.15;98551.97;10243602;28;20121;-57
2022/12/05 16:28:15;;;;;;;73.82;39.17;;;;;;;4.31;98.05;98546.34;10240796;28;20096;-57
2022/12/05 16:33:15;;;;;;;43.58;25.70;;;;;;;4.42;97.64;98537.31;10242252;28;20073;-57
2022/12/05 16:38:23;;;;;;;43.03;23.80;;;;;;;4.58;97.64;98538.75;10243058;28;20346;-57
2022/12/05 16:43:33;;;;;;;52.22;28.13;;;;;;;4.54;97.14;98545.47;10242784;28;20117;-57
2022/12/05 16:48:32;;;;;;;;;;;;;;;4.25;97.96;98540.16;10242599;28;20145;-57
2022/12/05 16:53:31;;;;;;;33.33;19.00;;;;;;;3.97;99.89;98550.25;10241312;28;19914;-57
2022/12/05 16:58:33;;;;;;;44.47;24.38;;;;;;;3.85;100.00;98554.09;10242265;28;20118;-57
2022/12/05 17:03:33;;;;;;;68.32;37.40;;;;;;;3.98;100.00;98546.84;10241763;28;20128;-58
2022/12/05 17:08:32;;;;;;;64.30;36.53;;;;;;;4.01;100.00;98544.38;10238923;28;20149;-57
2022/12/05 17:13:31;;;;;;;51.58;32.28;;;;;;;3.97;100.00;98542.53;10238034;28;20550;-57
2022/12/05 17:18:31;;;;;;;48.50;30.00;;;;;;;3.86;100.00;98532.72;10240500;28;20121;-57
2022/12/05 17:23:30;;;;;;;53.08;31.33;;;;;;;3.99;100.00;98546.03;10242730;28;20129;-57
2022/12/05 17:28:29;;;;;;;86.55;50.80;;;;;;;4.04;100.00;98544.50;10241917;28;20054;-57
2022/12/05 17:33:28;;;;;;;117.45;65.63;;;;;;;4.14;99.97;98544.03;10242171;28;20042;-57
2022/12/05 17:38:27;;;;;;;52.15;31.13;;;;;;;4.12;100.00;98548.22;10241903;28;20680;-56
2022/12/05 17:43:26;;;;;;;69.38;42.58;;;;;;;4.16;99.98;98539.81;10242297;28;20048;-57
2022/12/05 17:48:25;;;;;;;62.20;35.03;;;;;;;4.08;100.00;98557.53;10240310;28;20527;-57
2022/12/05 17:53:24;;;;;;;74.05;41.75;;;;;;;4.12;99.76;98560.19;10240454;28;20795;-57
2022/12/05 17:58:23;;;;;;;63.30;38.35;;;;;;;4.10;100.00;98560.13;10242160;28;20034;-57
2022/12/05 18:03:22;;;;;;;52.30;31.02;;;;;;;4.06;100.00;98563.44;10249908;28;20762;-57
2022/12/05 18:08:23;;;;;;;46.88;25.35;;;;;;;3.92;100.00;98564.59;10249112;28;20496;-57
2022/12/05 18:13:21;;;;;;;40.30;18.83;;;;;;;3.84;100.00;98556.59;10263466;28;20143;-57
2022/12/05 18:18:20;;;;;;;43.88;22.73;;;;;;;3.82;100.00;98566.81;10249593;28;20038;-57
2022/12/05 18:23:19;;;;;;;48.30;24.63;;;;;;;3.98;100.00;98567.38;10247956;28;20034;-57
2022/12/05 18:28:18;;;;;;;94.72;54.08;;;;;;;4.07;100.00;98562.59;10244033;28;20104;-58
2022/12/05 18:33:17;;;;;;;92.03;53.65;;;;;;;4.06;100.00;98560.84;10245151;28;20034;-57
2022/12/05 18:38:16;;;;;;;141.85;77.05;;;;;;;4.10;100.00;98559.25;10245467;28;20030;-57
2022/12/05 18:43:15;;;;;;;81.82;43.65;;;;;;;4.13;99.92;98564.50;10248498;28;20032;-58
2022/12/05 18:48:14;;;;;;;96.78;50.22;;;;;;;4.18;99.59;98556.16;10248019;28;21011;-56
2022/12/05 18:53:13;;;;;;;176.13;92.32;;;;;;;4.17;99.75;98546.69;10248205;28;20042;-56
2022/12/05 18:58:12;;;;;;;113.60;58.70;;;;;;;4.25;99.35;98549.56;10247715;28;20038;-56
2022/12/05 19:03:11;;;;;;;179.75;79.70;;;;;;;4.23;99.41;98539.22;10247520;28;20054;-56
2022/12/05 19:08:10;;;;;;;147.23;73.03;;;;;;;4.23;99.35;98551.19;10247847;28;20044;-57
2022/12/05 19:13:09;;;;;;;201.13;95.72;;;;;;;4.21;99.31;98540.84;10246998;28;20048;-58
2022/12/05 19:18:08;;;;;;;87.00;39.60;;;;;;;4.27;99.17;98538.53;10246062;28;20479;-57
2022/12/05 19:23:07;;;;;;;101.18;49.17;;;;;;;4.30;98.92;98530.06;10247254;28;20529;-57
2022/12/05 19:28:06;;;;;;;87.05;41.97;;;;;;;4.35;98.32;98546.50;10246486;28;20399;-56
2022/12/05 19:33:05;;;;;;;85.40;43.53;;;;;;;4.29;98.14;98547.16;10246494;28;20031;-56
2022/12/05 19:38:04;;;;;;;90.15;44.75;;;;;;;4.28;97.96;98555.69;10246615;28;20206;-56
2022/12/05 19:43:03;;;;;;;148.30;82.40;;;;;;;4.27;97.57;98547.94;10245726;28;20026;-56
2022/12/05 19:48:02;;;;;;;60.50;34.58;;;;;;;4.08;97.96;98542.13;10246755;28;20039;-56
2022/12/05 19:53:01;;;;;;;53.08;29.83;;;;;;;4.08;98.18;98530.97;10246116;28;20662;-56
2022/12/05 19:58:00;;;;;;;49.50;26.17;;;;;;;4.08;97.70;98518.13;10245844;28;20435;-56
2022/12/05 20:02:59;;;;;;;62.58;33.03;;;;;;;4.12;97.42;98521.66;10243369;28;20050;-56
2022/12/05 20:07:59;;;;;;;137.63;75.32;;;;;;;4.12;97.03;98517.41;10245244;28;20042;-56
2022/12/05 20:12:57;;;;;;;70.88;38.13;;;;;;;4.07;96.92;98514.66;10243912;28;20500;-56
2022/12/05 20:17:56;;;;;;;56.92;30.98;;;;;;;3.89;97.57;98507.97;10244944;28;20511;-56
2022/12/05 20:22:55;;;;;;;47.42;28.95;;;;;;;3.86;97.74;98504.47;10244095;28;20480;-56
2022/12/05 20:27:54;;;;;;;64.72;37.88;;;;;;;3.83;97.57;98499.22;10244472;28;20389;-59
2022/12/05 20:32:53;;;;;;;49.22;28.23;;;;;;;3.83;97.39;98504.38;10244325;28;20381;-58
2022/12/05 20:37:52;;;;;;;41.92;24.33;;;;;;;3.86;97.19;98506.16;10244686;28;20397;-58
2022/12/05 20:42:51;;;;;;;65.30;35.72;;;;;;;3.88;97.04;98496.84;10241105;28;20046;-58
2022/12/05 20:47:50;;;;;;;55.15;28.60;;;;;;;3.86;97.04;98489.06;10243339;28;20026;-57
2022/12/05 20:52:49;;;;;;;49.03;25.30;;;;;;;3.92;97.01;98502.97;10243898;28;20419;-57
2022/12/05 20:57:48;;;;;;;49.40;26.73;;;;;;;3.92;96.97;98513.25;10243065;28;20381;-57
2022/12/05 21:02:47;;;;;;;87.68;45.20;;;;;;;3.89;96.65;98493.44;10243421;28;20046;-56
2022/12/05 21:07:46;;;;;;;45.20;25.73;;;;;;;3.88;96.88;98496.84;10243885;28;20370;-58
2022/12/05 21:12:45;;;;;;;45.25;22.10;;;;;;;3.85;96.65;98492.47;10242870;28;20033;-57
2022/12/05 21:17:44;;;;;;;40.88;19.75;;;;;;;3.89;96.73;98487.44;10243766;28;20066;-57
2022/12/05 21:22:43;;;;;;;47.45;23.23;;;;;;;3.86;96.44;98483.94;10243316;28;20041;-57
2022/12/05 21:27:42;;;;;;;49.78;24.35;;;;;;;3.82;96.57;98479.53;10240922;28;20374;-57
2022/12/05 21:32:42;;;;;;;52.25;26.30;;;;;;;3.66;97.25;98474.63;10244534;28;20104;-57
2022/12/05 21:37:41;;;;;;;54.55;27.42;;;;;;;3.65;97.18;98470.28;10251261;28;20145;-57
2022/12/05 21:42:40;;;;;;;69.07;31.25;;;;;;;3.72;96.83;98469.72;10250131;28;20490;-57
2022/12/05 21:47:39;;;;;;;52.90;26.23;;;;;;;3.76;96.58;98453.63;10250077;28;20428;-57
2022/12/05 21:52:38;;;;;;;43.28;21.17;;;;;;;3.76;96.80;98445.03;10250722;28;20104;-56
2022/12/05 21:57:37;;;;;;;53.00;28.23;;;;;;;3.75;96.63;98439.03;10250748;28;20069;-56
2022/12/05 22:02:36;;;;;;;;;;;;;;;3.66;96.29;98436.13;10250508;28;20500;-57
2022/12/05 22:07:35;;;;;;;66.03;36.95;;;;;;;3.60;96.84;98428.19;10250062;28;20171;-56
2022/12/05 22:12:34;;;;;;;48.63;26.25;;;;;;;3.64;96.69;98419.81;10246417;28;20023;-56
2022/12/05 22:17:33;;;;;;;53.38;28.02;;;;;;;3.65;96.38;98421.53;10249608;28;20034;-56
2022/12/05 22:22:34;;;;;;;41.38;21.70;;;;;;;3.50;97.01;98421.84;10249333;28;20455;-56
2022/12/05 22:27:34;;;;;;;42.17;22.60;;;;;;;3.47;96.75;98423.41;10249103;28;20093;-56
2022/12/05 22:32:33;;;;;;;47.28;24.83;;;;;;;3.33;97.04;98428.91;10249199;28;20034;-56
2022/12/05 22:37:32;;;;;;;44.33;20.65;;;;;;;3.22;97.25;98420.78;10248406;28;20378;-56
2022/12/05 22:42:31;;;;;;;42.70;20.35;;;;;;;3.25;97.19;98416.59;10249222;28;20133;-56
2022/12/05 22:47:30;;;;;;;55.92;27.67;;;;;;;3.29;97.12;98416.78;10247425;28;20053;-56
2022/12/05 22:52:29;;;;;;;50.25;24.13;;;;;;;3.25;97.13;98408.91;10246896;28;20415;-56
2022/12/05 22:57:28;;;;;;;67.00;34.13;;;;;;;3.09;97.76;98407.44;10248258;28;20145;-56
2022/12/05 23:02:27;;;;;;;46.05;23.60;;;;;;;3.04;98.04;98403.81;10247363;28;20134;-56
2022/12/05 23:07:26;;;;;;;46.47;21.33;;;;;;;3.05;98.08;98403.91;10247345;28;20133;-56
2022/12/05 23:12:25;;;;;;;45.28;19.30;;;;;;;3.16;97.59;98391.47;10246590;28;20041;-56
2022/12/05 23:17:24;;;;;;;50.08;23.50;;;;;;;3.16;97.70;98383.78;10242419;28;20057;-56